sensor_id;sensor_type;location;lat;lon;timestamp;P1;durP1;ratioP1;P2;durP2;ratioP2
6953;SDS011;3516;47.980;8.808;2023-05-10T04:23:13;0.40;;;0.40;;
6953;SDS011;3516;47.980;8.808;2023-05-10T04:25:41;0.22;;;0.20;;
6953;SDS011;3516;47.980;8.808;2023-05-10T04:28:09;0.30;;;0.30;;
6953;SDS011;3516;47.980;8.808;2023-05-10T04:30:37;0.30;;;0.30;;
6953;SDS011;3516;47.980;8.808;2023-05-10T04:33:06;0.30;;;0.30;;
6953;SDS011;3516;47.980;8.808;2023-05-10T04:35:34;0.30;;;0.30;;
6953;SDS011;3516;47.980;8.808;2023-05-10T04:38:02;0.30;;;0.30;;
6953;SDS011;3516;47.980;8.808;2023-05-10T04:40:32;0.30;;;0.30;;
6953;SDS011;3516;47.980;8.808;2023-05-10T04:43:00;0.30;;;0.30;;
6953;SDS011;3516;47.980;8.808;2023-05-10T04:45:28;0.30;;;0.30;;
6953;SDS011;3516;47.980;8.808;2023-05-10T04:47:56;0.30;;;0.30;;
6953;SDS011;3516;47.980;8.808;2023-05-10T04:50:24;0.28;;;0.28;;
6953;SDS011;3516;47.980;8.808;2023-05-10T04:52:52;0.20;;;0.20;;
6953;SDS011;3516;47.980;8.808;2023-05-10T04:55:20;0.30;;;0.30;;
6953;SDS011;3516;47.980;8.808;2023-05-10T04:57:50;0.30;;;0.30;;
6953;SDS011;3516;47.980;8.808;2023-05-10T05:00:18;0.25;;;0.25;;
6953;SDS011;3516;47.980;8.808;2023-05-10T05:02:46;0.20;;;0.20;;
6953;SDS011;3516;47.980;8.808;2023-05-10T05:05:14;0.30;;;0.30;;
6953;SDS011;3516;47.980;8.808;2023-05-10T05:07:42;0.30;;;0.30;;
6953;SDS011;3516;47.980;8.808;2023-05-10T05:10:10;0.30;;;0.30;;
6953;SDS011;3516;47.980;8.808;2023-05-10T05:12:38;0.30;;;0.30;;
6953;SDS011;3516;47.980;8.808;2023-05-10T05:15:08;0.30;;;0.30;;
6953;SDS011;3516;47.980;8.808;2023-05-10T05:17:36;0.30;;;0.30;;
6953;SDS011;3516;47.980;8.808;2023-05-10T05:20:05;0.30;;;0.30;;
6953;SDS011;3516;47.980;8.808;2023-05-10T05:22:33;0.25;;;0.25;;
6953;SDS011;3516;47.980;8.808;2023-05-10T05:25:01;0.30;;;0.30;;
6953;SDS011;3516;47.980;8.808;2023-05-10T05:27:29;0.30;;;0.30;;
6953;SDS011;3516;47.980;8.808;2023-05-10T05:29:56;0.30;;;0.30;;
6953;SDS011;3516;47.980;8.808;2023-05-10T05:32:25;0.20;;;0.20;;
6953;SDS011;3516;47.980;8.808;2023-05-10T05:34:53;0.25;;;0.25;;
6953;SDS011;3516;47.980;8.808;2023-05-10T05:37:21;0.20;;;0.20;;
6953;SDS011;3516;47.980;8.808;2023-05-10T05:39:49;0.25;;;0.25;;
6953;SDS011;3516;47.980;8.808;2023-05-10T05:42:19;0.20;;;0.20;;
6953;SDS011;3516;47.980;8.808;2023-05-10T05:44:47;0.28;;;0.28;;
6953;SDS011;3516;47.980;8.808;2023-05-10T05:47:16;0.30;;;0.30;;
6953;SDS011;3516;47.980;8.808;2023-05-10T05:49:44;0.20;;;0.20;;
6953;SDS011;3516;47.980;8.808;2023-05-10T05:52:11;0.30;;;0.30;;
6953;SDS011;3516;47.980;8.808;2023-05-10T05:54:38;0.57;;;0.30;;
6953;SDS011;3516;47.980;8.808;2023-05-10T05:57:05;0.30;;;0.30;;
6953;SDS011;3516;47.980;8.808;2023-05-10T05:59:32;0.20;;;0.20;;
6953;SDS011;3516;47.980;8.808;2023-05-10T06:01:59;0.40;;;0.40;;
6953;SDS011;3516;47.980;8.808;2023-05-10T06:04:26;0.30;;;0.30;;
6953;SDS011;3516;47.980;8.808;2023-05-10T06:06:55;0.30;;;0.30;;
6953;SDS011;3516;47.980;8.808;2023-05-10T06:09:22;0.40;;;0.40;;
6953;SDS011;3516;47.980;8.808;2023-05-10T06:11:49;0.30;;;0.30;;
6953;SDS011;3516;47.980;8.808;2023-05-10T06:14:16;0.40;;;0.40;;
6953;SDS011;3516;47.980;8.808;2023-05-10T06:16:46;0.30;;;0.30;;
6953;SDS011;3516;47.980;8.808;2023-05-10T06:19:13;0.40;;;0.40;;
6953;SDS011;3516;47.980;8.808;2023-05-10T06:21:40;0.40;;;0.40;;
6953;SDS011;3516;47.980;8.808;2023-05-10T06:24:08;0.45;;;0.45;;
6953;SDS011;3516;47.980;8.808;2023-05-10T06:26:34;0.30;;;0.30;;
6953;SDS011;3516;47.980;8.808;2023-05-10T06:29:01;0.30;;;0.30;;
6953;SDS011;3516;47.980;8.808;2023-05-10T06:31:28;0.40;;;0.40;;
6953;SDS011;3516;47.980;8.808;2023-05-10T06:33:55;0.30;;;0.30;;
6953;SDS011;3516;47.980;8.808;2023-05-10T06:36:22;0.40;;;0.40;;
6953;SDS011;3516;47.980;8.808;2023-05-10T06:38:51;0.30;;;0.30;;
6953;SDS011;3516;47.980;8.808;2023-05-10T06:41:19;0.40;;;0.40;;
6953;SDS011;3516;47.980;8.808;2023-05-10T06:43:46;0.20;;;0.20;;
6953;SDS011;3516;47.980;8.808;2023-05-10T06:46:13;0.30;;;0.30;;
6953;SDS011;3516;47.980;8.808;2023-05-10T06:48:39;0.40;;;0.40;;
6953;SDS011;3516;47.980;8.808;2023-05-10T06:51:06;0.30;;;0.30;;
6953;SDS011;3516;47.980;8.808;2023-05-10T06:53:33;0.40;;;0.40;;
6953;SDS011;3516;47.980;8.808;2023-05-10T06:55:59;0.40;;;0.40;;
6953;SDS011;3516;47.980;8.808;2023-05-10T06:58:28;0.20;;;0.20;;
6953;SDS011;3516;47.980;8.808;2023-05-10T07:01:01;0.35;;;0.35;;
6953;SDS011;3516;47.980;8.808;2023-05-10T07:03:28;0.30;;;0.30;;
6953;SDS011;3516;47.980;8.808;2023-05-10T07:05:59;0.30;;;0.30;;
6953;SDS011;3516;47.980;8.808;2023-05-10T07:08:28;0.40;;;0.40;;
6953;SDS011;3516;47.980;8.808;2023-05-10T07:10:58;0.30;;;0.30;;
6953;SDS011;3516;47.980;8.808;2023-05-10T07:13:26;0.30;;;0.30;;
6953;SDS011;3516;47.980;8.808;2023-05-10T07:15:54;1.38;;;0.32;;
6953;SDS011;3516;47.980;8.808;2023-05-10T07:18:20;0.65;;;0.50;;
6953;SDS011;3516;47.980;8.808;2023-05-10T07:20:47;0.43;;;0.43;;
6953;SDS011;3516;47.980;8.808;2023-05-10T07:23:14;0.25;;;0.25;;
6953;SDS011;3516;47.980;8.808;2023-05-10T07:25:44;0.30;;;0.30;;
6953;SDS011;3516;47.980;8.808;2023-05-10T07:28:11;0.38;;;0.38;;
6953;SDS011;3516;47.980;8.808;2023-05-10T07:30:38;0.40;;;0.40;;
6953;SDS011;3516;47.980;8.808;2023-05-10T07:33:06;0.30;;;0.30;;
6953;SDS011;3516;47.980;8.808;2023-05-10T07:35:33;0.57;;;0.43;;
6953;SDS011;3516;47.980;8.808;2023-05-10T07:38:00;0.30;;;0.30;;
6953;SDS011;3516;47.980;8.808;2023-05-10T07:40:27;0.32;;;0.32;;
6953;SDS011;3516;47.980;8.808;2023-05-10T07:42:54;0.30;;;0.30;;
6953;SDS011;3516;47.980;8.808;2023-05-10T07:45:21;0.30;;;0.30;;
6953;SDS011;3516;47.980;8.808;2023-05-10T07:47:48;0.30;;;0.30;;
6953;SDS011;3516;47.980;8.808;2023-05-10T07:50:16;0.30;;;0.30;;
6953;SDS011;3516;47.980;8.808;2023-05-10T07:52:43;0.30;;;0.30;;
6953;SDS011;3516;47.980;8.808;2023-05-10T07:55:10;0.40;;;0.40;;
6953;SDS011;3516;47.980;8.808;2023-05-10T07:57:37;0.40;;;0.40;;
6953;SDS011;3516;47.980;8.808;2023-05-10T08:00:04;0.30;;;0.30;;
6953;SDS011;3516;47.980;8.808;2023-05-10T08:02:32;0.20;;;0.20;;
6953;SDS011;3516;47.980;8.808;2023-05-10T08:04:59;0.30;;;0.30;;
6953;SDS011;3516;47.980;8.808;2023-05-10T08:07:28;0.30;;;0.30;;
6953;SDS011;3516;47.980;8.808;2023-05-10T08:09:54;0.25;;;0.25;;
6953;SDS011;3516;47.980;8.808;2023-05-10T08:12:21;0.20;;;0.20;;
6953;SDS011;3516;47.980;8.808;2023-05-10T08:14:48;0.30;;;0.30;;
6953;SDS011;3516;47.980;8.808;2023-05-10T08:17:15;0.20;;;0.20;;
6953;SDS011;3516;47.980;8.808;2023-05-10T08:19:43;0.82;;;0.20;;
6953;SDS011;3516;47.980;8.808;2023-05-10T08:22:10;0.30;;;0.30;;
6953;SDS011;3516;47.980;8.808;2023-05-10T08:24:38;0.20;;;0.20;;
6953;SDS011;3516;47.980;8.808;2023-05-10T08:27:07;0.25;;;0.25;;
6953;SDS011;3516;47.980;8.808;2023-05-10T08:29:34;0.40;;;0.40;;
6953;SDS011;3516;47.980;8.808;2023-05-10T08:32:01;0.47;;;0.30;;
6953;SDS011;3516;47.980;8.808;2023-05-10T08:34:31;0.55;;;0.40;;
6953;SDS011;3516;47.980;8.808;2023-05-10T08:36:58;0.55;;;0.43;;
6953;SDS011;3516;47.980;8.808;2023-05-10T08:39:25;0.75;;;0.50;;
6953;SDS011;3516;47.980;8.808;2023-05-10T08:41:53;0.40;;;0.40;;
6953;SDS011;3516;47.980;8.808;2023-05-10T08:44:24;0.40;;;0.40;;
6953;SDS011;3516;47.980;8.808;2023-05-10T08:46:51;0.75;;;0.40;;
6953;SDS011;3516;47.980;8.808;2023-05-10T08:49:20;0.40;;;0.40;;
6953;SDS011;3516;47.980;8.808;2023-05-10T08:51:50;1.90;;;0.32;;
6953;SDS011;3516;47.980;8.808;2023-05-10T08:54:20;0.47;;;0.47;;
6953;SDS011;3516;47.980;8.808;2023-05-10T08:56:47;1.85;;;0.50;;
6953;SDS011;3516;47.980;8.808;2023-05-10T08:59:16;0.47;;;0.47;;
6953;SDS011;3516;47.980;8.808;2023-05-10T09:01:42;0.38;;;0.38;;
6953;SDS011;3516;47.980;8.808;2023-05-10T09:04:13;0.40;;;0.40;;
6953;SDS011;3516;47.980;8.808;2023-05-10T09:06:39;0.40;;;0.40;;
6953;SDS011;3516;47.980;8.808;2023-05-10T09:09:07;0.40;;;0.40;;
6953;SDS011;3516;47.980;8.808;2023-05-10T09:11:34;0.73;;;0.40;;
6953;SDS011;3516;47.980;8.808;2023-05-10T09:14:00;0.30;;;0.30;;
6953;SDS011;3516;47.980;8.808;2023-05-10T09:16:29;0.40;;;0.40;;
6953;SDS011;3516;47.980;8.808;2023-05-10T09:18:57;0.55;;;0.40;;
6953;SDS011;3516;47.980;8.808;2023-05-10T09:21:24;0.40;;;0.28;;
6953;SDS011;3516;47.980;8.808;2023-05-10T09:23:51;0.30;;;0.30;;
6953;SDS011;3516;47.980;8.808;2023-05-10T09:26:21;0.30;;;0.30;;
6953;SDS011;3516;47.980;8.808;2023-05-10T09:28:51;0.30;;;0.30;;
6953;SDS011;3516;47.980;8.808;2023-05-10T09:31:19;0.30;;;0.30;;
6953;SDS011;3516;47.980;8.808;2023-05-10T09:33:48;0.57;;;0.43;;
6953;SDS011;3516;47.980;8.808;2023-05-10T09:36:16;0.50;;;0.50;;
6953;SDS011;3516;47.980;8.808;2023-05-10T09:38:46;0.40;;;0.40;;
6953;SDS011;3516;47.980;8.808;2023-05-10T09:41:17;0.40;;;0.40;;
6953;SDS011;3516;47.980;8.808;2023-05-10T09:43:46;0.52;;;0.52;;
6953;SDS011;3516;47.980;8.808;2023-05-10T09:46:13;2.78;;;0.50;;
6953;SDS011;3516;47.980;8.808;2023-05-10T09:48:41;0.45;;;0.45;;
6953;SDS011;3516;47.980;8.808;2023-05-10T09:51:14;0.40;;;0.40;;
6953;SDS011;3516;47.980;8.808;2023-05-10T09:53:45;0.35;;;0.20;;
6953;SDS011;3516;47.980;8.808;2023-05-10T09:56:12;0.38;;;0.38;;
6953;SDS011;3516;47.980;8.808;2023-05-10T09:58:39;0.30;;;0.30;;
6953;SDS011;3516;47.980;8.808;2023-05-10T10:01:10;0.35;;;0.30;;
6953;SDS011;3516;47.980;8.808;2023-05-10T10:03:42;0.20;;;0.20;;
6953;SDS011;3516;47.980;8.808;2023-05-10T10:06:09;0.30;;;0.30;;
6953;SDS011;3516;47.980;8.808;2023-05-10T10:08:38;0.20;;;0.20;;
6953;SDS011;3516;47.980;8.808;2023-05-10T10:11:05;0.35;;;0.30;;
6953;SDS011;3516;47.980;8.808;2023-05-10T10:13:32;0.30;;;0.30;;
6953;SDS011;3516;47.980;8.808;2023-05-10T10:16:01;0.40;;;0.40;;
6953;SDS011;3516;47.980;8.808;2023-05-10T10:18:34;0.43;;;0.43;;
6953;SDS011;3516;47.980;8.808;2023-05-10T10:21:04;0.45;;;0.40;;
6953;SDS011;3516;47.980;8.808;2023-05-10T10:23:31;0.40;;;0.40;;
6953;SDS011;3516;47.980;8.808;2023-05-10T10:26:00;0.30;;;0.30;;
6953;SDS011;3516;47.980;8.808;2023-05-10T10:28:30;0.40;;;0.30;;
6953;SDS011;3516;47.980;8.808;2023-05-10T10:31:00;0.40;;;0.40;;
6953;SDS011;3516;47.980;8.808;2023-05-10T10:33:40;0.77;;;0.35;;
6953;SDS011;3516;47.980;8.808;2023-05-10T10:36:21;1.10;;;0.40;;
6953;SDS011;3516;47.980;8.808;2023-05-10T10:38:54;0.82;;;0.50;;
6953;SDS011;3516;47.980;8.808;2023-05-10T10:41:29;0.32;;;0.32;;
6953;SDS011;3516;47.980;8.808;2023-05-10T10:46:58;2.42;;;0.40;;
6953;SDS011;3516;47.980;8.808;2023-05-10T10:49:27;1.20;;;0.40;;
6953;SDS011;3516;47.980;8.808;2023-05-10T10:52:14;0.38;;;0.38;;
6953;SDS011;3516;47.980;8.808;2023-05-10T10:54:49;0.30;;;0.30;;
6953;SDS011;3516;47.980;8.808;2023-05-10T10:57:19;1.25;;;0.40;;
6953;SDS011;3516;47.980;8.808;2023-05-10T10:59:48;0.43;;;0.40;;
6953;SDS011;3516;47.980;8.808;2023-05-10T11:02:34;0.30;;;0.30;;
6953;SDS011;3516;47.980;8.808;2023-05-10T11:07:51;0.30;;;0.30;;
6953;SDS011;3516;47.980;8.808;2023-05-10T11:10:21;1.65;;;0.40;;
6953;SDS011;3516;47.980;8.808;2023-05-10T11:12:53;0.30;;;0.30;;
6953;SDS011;3516;47.980;8.808;2023-05-10T11:15:29;0.30;;;0.30;;
6953;SDS011;3516;47.980;8.808;2023-05-10T11:17:59;0.30;;;0.30;;
6953;SDS011;3516;47.980;8.808;2023-05-10T11:20:27;0.70;;;0.50;;
6953;SDS011;3516;47.980;8.808;2023-05-10T11:23:00;0.43;;;0.40;;
6953;SDS011;3516;47.980;8.808;2023-05-10T11:25:41;0.30;;;0.30;;
6953;SDS011;3516;47.980;8.808;2023-05-10T11:28:11;0.40;;;0.40;;
6953;SDS011;3516;47.980;8.808;2023-05-10T11:30:39;0.77;;;0.50;;
6953;SDS011;3516;47.980;8.808;2023-05-10T11:33:08;0.40;;;0.40;;
6953;SDS011;3516;47.980;8.808;2023-05-10T11:35:39;0.73;;;0.40;;
6953;SDS011;3516;47.980;8.808;2023-05-10T11:38:07;3.95;;;0.50;;
6953;SDS011;3516;47.980;8.808;2023-05-10T11:40:36;1.55;;;0.50;;
6953;SDS011;3516;47.980;8.808;2023-05-10T11:43:06;3.83;;;0.80;;
6953;SDS011;3516;47.980;8.808;2023-05-10T11:45:41;3.15;;;0.70;;
6953;SDS011;3516;47.980;8.808;2023-05-10T11:48:09;2.58;;;0.55;;
6953;SDS011;3516;47.980;8.808;2023-05-10T11:50:37;1.02;;;0.70;;
6953;SDS011;3516;47.980;8.808;2023-05-10T11:53:07;1.75;;;0.60;;
6953;SDS011;3516;47.980;8.808;2023-05-10T11:55:37;2.90;;;0.70;;
6953;SDS011;3516;47.980;8.808;2023-05-10T11:58:17;2.88;;;0.70;;
6953;SDS011;3516;47.980;8.808;2023-05-10T12:00:47;2.20;;;0.50;;
6953;SDS011;3516;47.980;8.808;2023-05-10T12:03:16;0.77;;;0.52;;
6953;SDS011;3516;47.980;8.808;2023-05-10T12:05:46;0.90;;;0.57;;
6953;SDS011;3516;47.980;8.808;2023-05-10T12:08:15;0.98;;;0.88;;
6953;SDS011;3516;47.980;8.808;2023-05-10T12:10:43;2.13;;;0.85;;
6953;SDS011;3516;47.980;8.808;2023-05-10T12:13:11;2.40;;;0.60;;
6953;SDS011;3516;47.980;8.808;2023-05-10T12:15:42;0.47;;;0.47;;
6953;SDS011;3516;47.980;8.808;2023-05-10T12:18:14;0.77;;;0.60;;
6953;SDS011;3516;47.980;8.808;2023-05-10T12:20:46;0.60;;;0.60;;
6953;SDS011;3516;47.980;8.808;2023-05-10T12:23:19;0.63;;;0.63;;
6953;SDS011;3516;47.980;8.808;2023-05-10T12:25:50;0.50;;;0.50;;
6953;SDS011;3516;47.980;8.808;2023-05-10T12:28:20;0.85;;;0.50;;
6953;SDS011;3516;47.980;8.808;2023-05-10T12:30:49;2.00;;;0.70;;
6953;SDS011;3516;47.980;8.808;2023-05-10T12:33:21;1.67;;;0.80;;
6953;SDS011;3516;47.980;8.808;2023-05-10T12:35:49;1.27;;;0.55;;
6953;SDS011;3516;47.980;8.808;2023-05-10T12:38:26;5.05;;;0.80;;
6953;SDS011;3516;47.980;8.808;2023-05-10T12:40:55;0.63;;;0.63;;
6953;SDS011;3516;47.980;8.808;2023-05-10T12:43:23;0.60;;;0.50;;
6953;SDS011;3516;47.980;8.808;2023-05-10T12:45:50;0.65;;;0.65;;
6953;SDS011;3516;47.980;8.808;2023-05-10T12:48:18;0.70;;;0.40;;
6953;SDS011;3516;47.980;8.808;2023-05-10T12:50:47;2.55;;;0.60;;
6953;SDS011;3516;47.980;8.808;2023-05-10T12:53:15;0.65;;;0.50;;
6953;SDS011;3516;47.980;8.808;2023-05-10T12:55:44;0.55;;;0.55;;
6953;SDS011;3516;47.980;8.808;2023-05-10T12:58:16;0.50;;;0.50;;
6953;SDS011;3516;47.980;8.808;2023-05-10T13:00:46;0.63;;;0.50;;
6953;SDS011;3516;47.980;8.808;2023-05-10T13:03:14;0.50;;;0.50;;
6953;SDS011;3516;47.980;8.808;2023-05-10T13:05:42;0.75;;;0.47;;
6953;SDS011;3516;47.980;8.808;2023-05-10T13:08:10;0.60;;;0.40;;
6953;SDS011;3516;47.980;8.808;2023-05-10T13:10:37;1.50;;;0.35;;
6953;SDS011;3516;47.980;8.808;2023-05-10T13:13:03;0.32;;;0.32;;
6953;SDS011;3516;47.980;8.808;2023-05-10T13:15:30;0.20;;;0.20;;
6953;SDS011;3516;47.980;8.808;2023-05-10T13:17:57;0.40;;;0.40;;
6953;SDS011;3516;47.980;8.808;2023-05-10T13:20:24;0.95;;;0.40;;
6953;SDS011;3516;47.980;8.808;2023-05-10T13:22:51;0.40;;;0.35;;
6953;SDS011;3516;47.980;8.808;2023-05-10T13:25:19;0.73;;;0.30;;
6953;SDS011;3516;47.980;8.808;2023-05-10T13:27:46;0.30;;;0.30;;
6953;SDS011;3516;47.980;8.808;2023-05-10T13:30:12;0.40;;;0.40;;
6953;SDS011;3516;47.980;8.808;2023-05-10T13:32:39;0.63;;;0.30;;
6953;SDS011;3516;47.980;8.808;2023-05-10T13:35:06;0.28;;;0.28;;
6953;SDS011;3516;47.980;8.808;2023-05-10T13:37:33;0.50;;;0.38;;
6953;SDS011;3516;47.980;8.808;2023-05-10T13:40:02;0.30;;;0.30;;
6953;SDS011;3516;47.980;8.808;2023-05-10T13:42:31;1.45;;;0.20;;
6953;SDS011;3516;47.980;8.808;2023-05-10T13:44:58;0.25;;;0.25;;
6953;SDS011;3516;47.980;8.808;2023-05-10T13:47:25;1.80;;;0.35;;
6953;SDS011;3516;47.980;8.808;2023-05-10T13:49:52;0.22;;;0.22;;
6953;SDS011;3516;47.980;8.808;2023-05-10T13:52:19;0.40;;;0.40;;
6953;SDS011;3516;47.980;8.808;2023-05-10T13:54:46;0.88;;;0.30;;
6953;SDS011;3516;47.980;8.808;2023-05-10T13:57:12;0.30;;;0.30;;
6953;SDS011;3516;47.980;8.808;2023-05-10T13:59:42;0.40;;;0.40;;
6953;SDS011;3516;47.980;8.808;2023-05-10T14:02:09;0.32;;;0.32;;
6953;SDS011;3516;47.980;8.808;2023-05-10T14:04:37;0.38;;;0.30;;
6953;SDS011;3516;47.980;8.808;2023-05-10T14:07:04;0.20;;;0.20;;
6953;SDS011;3516;47.980;8.808;2023-05-10T14:09:31;0.20;;;0.20;;
6953;SDS011;3516;47.980;8.808;2023-05-10T14:11:58;0.32;;;0.30;;
6953;SDS011;3516;47.980;8.808;2023-05-10T14:14:24;0.30;;;0.30;;
6953;SDS011;3516;47.980;8.808;2023-05-10T14:16:52;0.20;;;0.20;;
6953;SDS011;3516;47.980;8.808;2023-05-10T14:19:19;0.75;;;0.75;;
6953;SDS011;3516;47.980;8.808;2023-05-10T14:21:46;1.30;;;0.73;;
6953;SDS011;3516;47.980;8.808;2023-05-10T14:24:13;0.80;;;0.43;;
6953;SDS011;3516;47.980;8.808;2023-05-10T14:26:39;0.70;;;0.70;;
6953;SDS011;3516;47.980;8.808;2023-05-10T14:29:06;0.45;;;0.45;;
6953;SDS011;3516;47.980;8.808;2023-05-10T14:31:33;0.40;;;0.40;;
6953;SDS011;3516;47.980;8.808;2023-05-10T14:34:01;0.80;;;0.50;;
6953;SDS011;3516;47.980;8.808;2023-05-10T14:36:28;0.40;;;0.40;;
6953;SDS011;3516;47.980;8.808;2023-05-10T14:38:55;0.50;;;0.50;;
6953;SDS011;3516;47.980;8.808;2023-05-10T14:41:21;0.40;;;0.40;;
6953;SDS011;3516;47.980;8.808;2023-05-10T14:43:49;0.40;;;0.40;;
6953;SDS011;3516;47.980;8.808;2023-05-10T14:46:16;0.93;;;0.50;;
6953;SDS011;3516;47.980;8.808;2023-05-10T14:48:43;0.85;;;0.40;;
6953;SDS011;3516;47.980;8.808;2023-05-10T14:51:11;0.40;;;0.40;;
6953;SDS011;3516;47.980;8.808;2023-05-10T14:53:37;0.47;;;0.45;;
6953;SDS011;3516;47.980;8.808;2023-05-10T14:56:04;0.60;;;0.60;;
6953;SDS011;3516;47.980;8.808;2023-05-10T14:58:32;1.10;;;0.40;;
6953;SDS011;3516;47.980;8.808;2023-05-10T15:00:58;0.75;;;0.52;;
6953;SDS011;3516;47.980;8.808;2023-05-10T15:03:25;2.20;;;0.80;;
6953;SDS011;3516;47.980;8.808;2023-05-10T15:05:52;0.73;;;0.73;;
6953;SDS011;3516;47.980;8.808;2023-05-10T15:08:22;1.52;;;0.73;;
6953;SDS011;3516;47.980;8.808;2023-05-10T15:10:49;0.68;;;0.60;;
6953;SDS011;3516;47.980;8.808;2023-05-10T15:13:16;0.50;;;0.50;;
6953;SDS011;3516;47.980;8.808;2023-05-10T15:15:43;1.80;;;0.70;;
6953;SDS011;3516;47.980;8.808;2023-05-10T15:18:09;0.70;;;0.70;;
6953;SDS011;3516;47.980;8.808;2023-05-10T15:20:36;1.75;;;0.80;;
6953;SDS011;3516;47.980;8.808;2023-05-10T15:23:03;1.30;;;0.57;;
6953;SDS011;3516;47.980;8.808;2023-05-10T15:25:31;0.40;;;0.40;;
6953;SDS011;3516;47.980;8.808;2023-05-10T15:27:59;1.48;;;0.47;;
6953;SDS011;3516;47.980;8.808;2023-05-10T15:30:26;0.90;;;0.70;;
6953;SDS011;3516;47.980;8.808;2023-05-10T15:32:53;1.08;;;0.60;;
6953;SDS011;3516;47.980;8.808;2023-05-10T16:03:50;0.82;;;0.82;;
6953;SDS011;3516;47.980;8.808;2023-05-10T16:06:17;0.82;;;0.82;;
6953;SDS011;3516;47.980;8.808;2023-05-10T16:08:44;0.52;;;0.52;;
6953;SDS011;3516;47.980;8.808;2023-05-10T16:11:10;0.55;;;0.50;;
6953;SDS011;3516;47.980;8.808;2023-05-10T16:13:37;0.43;;;0.43;;
6953;SDS011;3516;47.980;8.808;2023-05-10T16:16:04;0.50;;;0.50;;
6953;SDS011;3516;47.980;8.808;2023-05-10T16:18:32;0.85;;;0.85;;
6953;SDS011;3516;47.980;8.808;2023-05-10T16:21:00;0.98;;;0.98;;
6953;SDS011;3516;47.980;8.808;2023-05-10T16:23:27;0.60;;;0.60;;
6953;SDS011;3516;47.980;8.808;2023-05-10T16:25:54;0.60;;;0.60;;
6953;SDS011;3516;47.980;8.808;2023-05-10T16:28:21;0.50;;;0.50;;
6953;SDS011;3516;47.980;8.808;2023-05-10T16:30:47;0.57;;;0.57;;
6953;SDS011;3516;47.980;8.808;2023-05-10T16:33:15;0.52;;;0.52;;
6953;SDS011;3516;47.980;8.808;2023-05-10T16:35:42;0.70;;;0.70;;
6953;SDS011;3516;47.980;8.808;2023-05-10T16:38:10;0.75;;;0.70;;
6953;SDS011;3516;47.980;8.808;2023-05-10T16:40:37;0.40;;;0.40;;
6953;SDS011;3516;47.980;8.808;2023-05-10T16:43:03;0.73;;;0.73;;
6953;SDS011;3516;47.980;8.808;2023-05-10T16:45:30;0.40;;;0.40;;
6953;SDS011;3516;47.980;8.808;2023-05-10T16:47:57;0.50;;;0.50;;
6953;SDS011;3516;47.980;8.808;2023-05-10T16:50:24;0.50;;;0.50;;
6953;SDS011;3516;47.980;8.808;2023-05-10T16:52:50;0.60;;;0.60;;
6953;SDS011;3516;47.980;8.808;2023-05-10T16:55:18;0.50;;;0.50;;
6953;SDS011;3516;47.980;8.808;2023-05-10T16:57:45;0.50;;;0.50;;
6953;SDS011;3516;47.980;8.808;2023-05-10T17:00:12;0.40;;;0.40;;
6953;SDS011;3516;47.980;8.808;2023-05-10T17:02:40;0.38;;;0.30;;
6953;SDS011;3516;47.980;8.808;2023-05-10T17:05:07;0.63;;;0.63;;
6953;SDS011;3516;47.980;8.808;2023-05-10T17:07:34;0.40;;;0.40;;
6953;SDS011;3516;47.980;8.808;2023-05-10T17:10:00;0.35;;;0.35;;
6953;SDS011;3516;47.980;8.808;2023-05-10T17:12:28;0.40;;;0.40;;
6953;SDS011;3516;47.980;8.808;2023-05-10T17:14:55;0.40;;;0.40;;
6953;SDS011;3516;47.980;8.808;2023-05-10T17:17:22;0.55;;;0.55;;
6953;SDS011;3516;47.980;8.808;2023-05-10T17:19:49;0.73;;;0.45;;
6953;SDS011;3516;47.980;8.808;2023-05-10T17:22:16;0.30;;;0.30;;
6953;SDS011;3516;47.980;8.808;2023-05-10T17:24:43;0.30;;;0.30;;
6953;SDS011;3516;47.980;8.808;2023-05-10T17:27:10;0.47;;;0.47;;
6953;SDS011;3516;47.980;8.808;2023-05-10T17:29:38;0.40;;;0.40;;
6953;SDS011;3516;47.980;8.808;2023-05-10T17:32:05;0.38;;;0.38;;
6953;SDS011;3516;47.980;8.808;2023-05-10T17:34:33;0.40;;;0.40;;
6953;SDS011;3516;47.980;8.808;2023-05-10T17:37:00;0.30;;;0.30;;
6953;SDS011;3516;47.980;8.808;2023-05-10T17:39:26;0.50;;;0.50;;
6953;SDS011;3516;47.980;8.808;2023-05-10T17:41:53;0.40;;;0.40;;
6953;SDS011;3516;47.980;8.808;2023-05-10T17:44:20;0.32;;;0.32;;
6953;SDS011;3516;47.980;8.808;2023-05-10T17:46:48;0.35;;;0.35;;
6953;SDS011;3516;47.980;8.808;2023-05-10T17:49:14;0.70;;;0.30;;
6953;SDS011;3516;47.980;8.808;2023-05-10T17:51:41;1.00;;;0.40;;
6953;SDS011;3516;47.980;8.808;2023-05-10T17:54:08;0.40;;;0.40;;
6953;SDS011;3516;47.980;8.808;2023-05-10T17:56:35;0.40;;;0.40;;
6953;SDS011;3516;47.980;8.808;2023-05-10T17:59:02;0.38;;;0.38;;
6953;SDS011;3516;47.980;8.808;2023-05-10T18:01:28;0.25;;;0.25;;
6953;SDS011;3516;47.980;8.808;2023-05-10T18:03:56;0.30;;;0.30;;
6953;SDS011;3516;47.980;8.808;2023-05-10T18:06:23;0.30;;;0.30;;
6953;SDS011;3516;47.980;8.808;2023-05-10T18:08:50;0.25;;;0.25;;
6953;SDS011;3516;47.980;8.808;2023-05-10T18:11:16;0.30;;;0.30;;
6953;SDS011;3516;47.980;8.808;2023-05-10T18:13:43;1.77;;;0.50;;
6953;SDS011;3516;47.980;8.808;2023-05-10T18:16:10;0.30;;;0.30;;
6953;SDS011;3516;47.980;8.808;2023-05-10T18:18:37;0.30;;;0.30;;
6953;SDS011;3516;47.980;8.808;2023-05-10T18:21:05;0.43;;;0.38;;
6953;SDS011;3516;47.980;8.808;2023-05-10T18:23:32;0.40;;;0.40;;
6953;SDS011;3516;47.980;8.808;2023-05-10T18:25:59;0.40;;;0.40;;
6953;SDS011;3516;47.980;8.808;2023-05-10T18:28:26;0.30;;;0.30;;
6953;SDS011;3516;47.980;8.808;2023-05-10T18:30:53;0.50;;;0.50;;
6953;SDS011;3516;47.980;8.808;2023-05-10T18:33:20;0.40;;;0.40;;
6953;SDS011;3516;47.980;8.808;2023-05-10T18:35:46;0.40;;;0.40;;
6953;SDS011;3516;47.980;8.808;2023-05-10T18:38:14;0.90;;;0.90;;
6953;SDS011;3516;47.980;8.808;2023-05-10T18:40:41;0.80;;;0.80;;
6953;SDS011;3516;47.980;8.808;2023-05-10T18:43:08;0.88;;;0.88;;
6953;SDS011;3516;47.980;8.808;2023-05-10T18:45:34;0.75;;;0.70;;
6953;SDS011;3516;47.980;8.808;2023-05-10T18:48:03;0.60;;;0.60;;
6953;SDS011;3516;47.980;8.808;2023-05-10T18:50:30;2.08;;;0.82;;
6953;SDS011;3516;47.980;8.808;2023-05-10T18:52:57;0.63;;;0.63;;
6953;SDS011;3516;47.980;8.808;2023-05-10T18:55:25;0.70;;;0.70;;
6953;SDS011;3516;47.980;8.808;2023-05-10T18:57:52;0.55;;;0.55;;
6953;SDS011;3516;47.980;8.808;2023-05-10T19:00:19;0.60;;;0.60;;
6953;SDS011;3516;47.980;8.808;2023-05-10T19:02:45;0.50;;;0.50;;
6953;SDS011;3516;47.980;8.808;2023-05-10T19:05:12;0.50;;;0.50;;
6953;SDS011;3516;47.980;8.808;2023-05-10T19:07:41;0.73;;;0.70;;
6953;SDS011;3516;47.980;8.808;2023-05-10T19:10:09;0.68;;;0.68;;
6953;SDS011;3516;47.980;8.808;2023-05-10T19:12:38;0.50;;;0.50;;
6953;SDS011;3516;47.980;8.808;2023-05-10T19:15:06;0.60;;;0.60;;
6953;SDS011;3516;47.980;8.808;2023-05-10T19:17:34;0.52;;;0.52;;
6953;SDS011;3516;47.980;8.808;2023-05-10T19:20:02;0.60;;;0.60;;
6953;SDS011;3516;47.980;8.808;2023-05-10T19:22:29;0.82;;;0.60;;
6953;SDS011;3516;47.980;8.808;2023-05-10T19:24:56;0.60;;;0.60;;
6953;SDS011;3516;47.980;8.808;2023-05-10T19:27:22;0.50;;;0.50;;
6953;SDS011;3516;47.980;8.808;2023-05-10T19:29:50;0.68;;;0.68;;
6953;SDS011;3516;47.980;8.808;2023-05-10T19:32:17;0.65;;;0.65;;
6953;SDS011;3516;47.980;8.808;2023-05-10T19:34:44;0.40;;;0.40;;
6953;SDS011;3516;47.980;8.808;2023-05-10T19:37:10;0.50;;;0.50;;
6953;SDS011;3516;47.980;8.808;2023-05-10T19:39:37;0.40;;;0.40;;
6953;SDS011;3516;47.980;8.808;2023-05-10T19:42:04;0.63;;;0.60;;
6953;SDS011;3516;47.980;8.808;2023-05-10T19:44:31;1.08;;;0.85;;
6953;SDS011;3516;47.980;8.808;2023-05-10T19:46:59;0.60;;;0.60;;
6953;SDS011;3516;47.980;8.808;2023-05-10T19:49:28;0.60;;;0.60;;
6953;SDS011;3516;47.980;8.808;2023-05-10T19:51:55;0.60;;;0.60;;
6953;SDS011;3516;47.980;8.808;2023-05-10T19:54:21;1.20;;;0.60;;
6953;SDS011;3516;47.980;8.808;2023-05-10T19:56:48;0.77;;;0.77;;
6953;SDS011;3516;47.980;8.808;2023-05-10T19:59:15;0.50;;;0.50;;
6953;SDS011;3516;47.980;8.808;2023-05-10T20:01:42;0.40;;;0.40;;
6953;SDS011;3516;47.980;8.808;2023-05-10T20:04:10;0.50;;;0.50;;
6953;SDS011;3516;47.980;8.808;2023-05-10T20:06:36;0.50;;;0.50;;
6953;SDS011;3516;47.980;8.808;2023-05-10T20:09:03;0.52;;;0.52;;
6953;SDS011;3516;47.980;8.808;2023-05-10T20:11:30;0.50;;;0.50;;
6953;SDS011;3516;47.980;8.808;2023-05-10T20:13:56;0.52;;;0.52;;
6953;SDS011;3516;47.980;8.808;2023-05-10T20:16:23;1.35;;;0.60;;